Time;durP1;ratioP1;P1;durP2;ratioP2;P2;SDS_P1;SDS_P2;PMS_P1;PMS_P2;Temp;Humidity;BMP_temperature;BMP_pressure;BME280_temperature;BME280_humidity;BME280_pressure;Samples;Min_cycle;Max_cycle;Signal;HPM_P1;HPM_P2
2022/10/28 00:00:44;;;;;;;12.60;5.38;;;18.90;99.90;;;;;;5062510;28;20139;-70
2022/10/28 00:03:10;;;;;;;13.95;3.95;;;18.90;99.90;;;;;;5062223;28;20362;-70
2022/10/28 00:05:35;;;;;;;14.82;4.63;;;18.90;99.90;;;;;;5060190;28;20033;-70
2022/10/28 00:08:01;;;;;;;15.45;5.18;;;18.90;99.90;;;;;;5059459;28;20435;-70
2022/10/28 00:10:26;;;;;;;10.90;4.78;;;18.90;99.90;;;;;;5058546;28;20040;-70
2022/10/28 00:12:52;;;;;;;8.80;4.57;;;18.80;99.90;;;;;;5057004;28;20095;-71
2022/10/28 00:15:18;;;;;;;10.57;4.60;;;18.80;99.90;;;;;;5057308;28;20316;-70
2022/10/28 00:17:43;;;;;;;16.98;5.25;;;18.80;99.90;;;;;;5063991;28;20028;-71
2022/10/28 00:20:09;;;;;;;16.83;4.60;;;18.80;99.90;;;;;;5063080;28;20040;-70
2022/10/28 00:22:35;;;;;;;13.25;4.13;;;18.80;99.90;;;;;;5056759;28;20568;-71
2022/10/28 00:25:02;;;;;;;9.13;4.00;;;18.70;99.90;;;;;;5076903;28;20196;-70
2022/10/28 00:27:28;;;;;;;10.75;3.65;;;18.70;99.90;;;;;;5066702;28;20531;-70
2022/10/28 00:29:54;;;;;;;14.50;4.53;;;18.70;99.90;;;;;;5059032;28;20393;-71
2022/10/28 00:32:20;;;;;;;12.27;4.25;;;18.70;99.90;;;;;;5058103;28;20025;-70
2022/10/28 00:34:46;;;;;;;13.00;4.72;;;18.70;99.90;;;;;;5063006;28;20473;-71
2022/10/28 00:37:11;;;;;;;13.45;4.63;;;18.60;99.90;;;;;;5064933;28;20060;-70
2022/10/28 00:39:37;;;;;;;22.73;5.22;;;18.70;99.90;;;;;;5062651;28;20048;-70
2022/10/28 00:42:03;;;;;;;15.93;4.07;;;18.70;99.90;;;;;;5055466;28;20359;-70
2022/10/28 00:44:47;;;;;;;14.95;4.30;;;18.70;99.90;;;;;;5062190;28;20042;-70
2022/10/28 00:47:29;;;;;;;14.98;5.03;;;18.70;99.90;;;;;;5056214;28;20094;-70
2022/10/28 00:50:02;;;;;;;15.27;4.43;;;18.70;99.90;;;;;;5062079;28;20147;-70
2022/10/28 00:52:29;;;;;;;;;;;18.60;99.90;;;;;;5062257;28;20036;-70
2022/10/28 00:54:58;;;;;;;11.20;4.63;;;18.50;99.90;;;;;;5057625;28;20388;-70
2022/10/28 00:57:29;;;;;;;17.98;4.88;;;18.40;99.90;;;;;;5055802;28;20025;-70
2022/10/28 00:59:57;;;;;;;12.13;4.38;;;18.40;99.90;;;;;;5061061;28;20028;-70
2022/10/28 01:02:23;;;;;;;16.30;4.60;;;18.40;99.90;;;;;;5057926;28;20032;-70
2022/10/28 01:04:49;;;;;;;11.50;4.07;;;18.40;99.90;;;;;;5066413;28;20059;-70
2022/10/28 01:07:16;;;;;;;15.82;5.00;;;18.40;99.90;;;;;;5056558;28;20048;-70
2022/10/28 01:09:42;;;;;;;19.38;5.13;;;18.40;99.90;;;;;;5060261;28;20440;-70
2022/10/28 01:12:37;;;;;;;14.27;4.43;;;18.40;99.90;;;;;;5061818;28;20463;-70
2022/10/28 01:15:23;;;;;;;14.75;5.25;;;18.40;99.90;;;;;;5057503;28;20071;-69
2022/10/28 01:18:26;;;;;;;8.75;4.65;;;18.50;99.90;;;;;;5060551;28;20541;-70
2022/10/28 01:21:39;;;;;;;13.82;5.32;;;18.40;99.90;;;;;;5059060;28;20046;-70
2022/10/28 01:24:12;;;;;;;;;;;18.50;99.90;;;;;;5056813;28;20033;-70
2022/10/28 01:26:41;;;;;;;15.60;4.75;;;18.60;99.90;;;;;;5058261;28;19919;-70
2022/10/28 01:29:34;;;;;;;14.50;4.63;;;18.60;99.90;;;;;;5059820;28;20059;-70
2022/10/28 01:32:25;;;;;;;14.10;4.75;;;18.50;99.90;;;;;;5063670;28;20051;-70
2022/10/28 01:34:59;;;;;;;15.85;4.63;;;18.40;99.90;;;;;;5052451;28;20052;-70
2022/10/28 01:38:03;;;;;;;17.20;4.60;;;18.40;99.90;;;;;;5056892;28;20055;-70
2022/10/28 01:40:34;;;;;;;20.67;4.63;;;18.30;99.90;;;;;;5061974;28;20389;-70
2022/10/28 01:43:19;;;;;;;16.33;5.47;;;18.20;99.90;;;;;;5054900;28;20033;-70
2022/10/28 01:46:02;;;;;;;20.70;5.20;;;18.30;99.90;;;;;;5058311;28;20338;-71
2022/10/28 01:48:40;;;;;;;15.13;4.75;;;18.20;99.90;;;;;;5059166;28;20029;-70
2022/10/28 01:51:21;;;;;;;22.08;5.20;;;18.20;99.90;;;;;;5060256;28;20017;-70
2022/10/28 01:53:52;;;;;;;12.70;4.25;;;18.20;99.90;;;;;;5061725;28;20017;-70
2022/10/28 01:56:23;;;;;;;17.38;4.85;;;18.20;99.90;;;;;;5063325;28;20032;-70
2022/10/28 01:58:51;;;;;;;15.82;4.63;;;18.10;99.90;;;;;;5060997;28;20021;-70
2022/10/28 02:01:18;;;;;;;14.43;5.90;;;18.10;99.90;;;;;;5064127;28;20051;-70
2022/10/28 02:03:46;;;;;;;14.43;5.18;;;18.00;99.90;;;;;;5069058;28;20098;-70
2022/10/28 02:06:19;;;;;;;13.82;4.90;;;18.00;99.90;;;;;;5059403;28;20442;-70
2022/10/28 02:09:09;;;;;;;20.25;5.00;;;18.00;99.90;;;;;;5066290;28;20074;-70
2022/10/28 02:11:59;;;;;;;11.75;4.57;;;17.90;99.90;;;;;;5062498;28;20029;-70
2022/10/28 02:14:43;;;;;;;15.38;4.68;;;17.90;99.90;;;;;;5066656;28;20032;-70
2022/10/28 02:17:36;;;;;;;10.95;4.63;;;17.90;99.90;;;;;;5063366;28;20117;-70
2022/10/28 02:20:22;;;;;;;;;;;17.90;99.90;;;;;;5063102;28;20737;-70
2022/10/28 02:23:10;;;;;;;13.98;4.85;;;17.90;99.90;;;;;;5065094;28;19912;-70
2022/10/28 02:25:45;;;;;;;11.10;4.47;;;17.90;99.90;;;;;;5062533;28;20608;-70
2022/10/28 02:28:40;;;;;;;11.05;4.78;;;18.00;99.90;;;;;;5062866;28;20358;-70
2022/10/28 02:31:25;;;;;;;15.90;5.25;;;17.90;99.90;;;;;;5058143;28;20041;-70
2022/10/28 02:33:56;;;;;;;12.75;4.50;;;17.90;99.90;;;;;;5057458;28;20362;-70
2022/10/28 02:36:24;;;;;;;14.50;5.00;;;17.90;99.90;;;;;;5063460;28;20029;-70
2022/10/28 02:38:53;;;;;;;16.00;5.07;;;17.90;99.90;;;;;;5060176;28;20075;-70
2022/10/28 02:41:41;;;;;;;9.93;4.68;;;17.90;99.90;;;;;;5062151;28;20043;-70
2022/10/28 02:44:11;;;;;;;15.75;5.07;;;17.90;99.90;;;;;;5066613;28;20516;-70
2022/10/28 02:46:40;;;;;;;13.25;4.72;;;17.80;99.90;;;;;;5063768;28;20031;-70
2022/10/28 02:49:12;;;;;;;14.82;5.00;;;17.80;99.90;;;;;;5061465;28;20027;-70
2022/10/28 02:51:58;;;;;;;15.60;4.63;;;17.80;99.90;;;;;;5065538;28;20166;-70
2022/10/28 02:54:38;;;;;;;13.32;5.15;;;17.80;99.90;;;;;;5063012;28;20021;-70
2022/10/28 02:57:12;;;;;;;17.33;4.82;;;17.80;99.90;;;;;;5060876;28;20037;-70
2022/10/28 02:59:37;;;;;;;20.00;6.18;;;17.80;99.90;;;;;;5067944;28;20066;-70
2022/10/28 03:02:04;;;;;;;13.82;5.70;;;17.80;99.90;;;;;;5063759;28;20472;-70
2022/10/28 03:04:29;;;;;;;16.63;6.55;;;17.70;99.90;;;;;;5063804;28;20021;-70
2022/10/28 03:06:55;;;;;;;17.45;5.25;;;17.70;99.90;;;;;;5057317;28;20032;-70
2022/10/28 03:09:20;;;;;;;22.77;5.75;;;17.70;99.90;;;;;;5068183;28;20066;-70
2022/10/28 03:11:46;;;;;;;12.18;5.85;;;17.70;99.90;;;;;;5063740;28;20066;-70
2022/10/28 03:14:11;;;;;;;16.27;4.78;;;17.60;99.90;;;;;;5061279;28;20032;-70
2022/10/28 03:16:37;;;;;;;13.73;5.20;;;17.60;99.90;;;;;;5068086;28;20024;-70
2022/10/28 03:19:03;;;;;;;12.55;5.13;;;17.60;99.90;;;;;;5058860;28;20041;-70
2022/10/28 03:21:28;;;;;;;15.30;4.68;;;17.60;99.90;;;;;;5060826;28;20037;-70
2022/10/28 03:23:54;;;;;;;15.45;5.30;;;17.60;99.90;;;;;;5059510;28;20025;-70
2022/10/28 03:26:19;;;;;;;16.27;5.10;;;17.60;99.90;;;;;;5057926;28;20029;-70
2022/10/28 03:28:45;;;;;;;12.52;4.75;;;17.60;99.90;;;;;;5065000;28;20027;-71
2022/10/28 03:31:11;;;;;;;19.73;4.90;;;17.60;99.90;;;;;;5062000;28;20028;-71
2022/10/28 03:33:37;;;;;;;12.85;4.97;;;17.60;99.90;;;;;;5060693;28;20377;-70
2022/10/28 03:36:04;;;;;;;16.55;5.22;;;17.60;99.90;;;;;;5065285;28;20535;-70
2022/10/28 03:38:29;;;;;;;16.13;5.55;;;17.60;99.90;;;;;;5063729;28;20093;-70
2022/10/28 03:40:55;;;;;;;18.65;4.70;;;17.50;99.90;;;;;;5063790;28;20037;-70
2022/10/28 03:43:20;;;;;;;16.10;5.40;;;17.50;99.90;;;;;;5065112;28;20497;-69
2022/10/28 03:45:47;;;;;;;24.38;6.20;;;17.50;99.90;;;;;;5067619;28;20085;-70
2022/10/28 03:48:12;;;;;;;19.52;6.32;;;17.50;99.90;;;;;;5060205;28;20041;-70
2022/10/28 03:50:38;;;;;;;23.05;6.60;;;17.50;99.90;;;;;;5058178;28;20536;-70
2022/10/28 03:53:03;;;;;;;18.63;6.28;;;17.50;99.90;;;;;;5061572;28;20385;-70
2022/10/28 03:55:29;;;;;;;14.27;5.35;;;17.50;99.90;;;;;;5063215;28;20465;-70
2022/10/28 03:57:54;;;;;;;11.68;5.32;;;17.50;99.90;;;;;;5062283;28;20033;-70
2022/10/28 04:00:20;;;;;;;13.80;5.82;;;17.50;99.90;;;;;;5065283;28;20017;-70
2022/10/28 04:02:50;;;;;;;14.80;5.28;;;17.50;99.90;;;;;;5058615;28;20036;-70
2022/10/28 04:05:16;;;;;;;19.25;5.90;;;17.50;99.90;;;;;;5065777;28;20013;-70
2022/10/28 04:07:42;;;;;;;13.63;6.05;;;17.50;99.90;;;;;;5063424;28;20458;-70
2022/10/28 04:10:08;;;;;;;14.88;4.90;;;17.50;99.90;;;;;;5057505;28;20059;-70
2022/10/28 04:12:33;;;;;;;19.00;5.88;;;17.40;99.90;;;;;;5065353;28;20025;-70
2022/10/28 04:14:59;;;;;;;21.98;6.78;;;17.40;99.90;;;;;;5061151;28;20028;-70
2022/10/28 04:17:25;;;;;;;20.25;7.07;;;17.40;99.90;;;;;;5061884;28;20521;-70
2022/10/28 04:19:50;;;;;;;15.52;5.55;;;17.40;99.90;;;;;;5062662;28;20025;-70
2022/10/28 04:22:16;;;;;;;14.23;5.25;;;17.40;99.90;;;;;;5060511;28;20040;-70
2022/10/28 04:24:42;;;;;;;20.10;6.15;;;17.40;99.90;;;;;;5061302;28;20055;-70
2022/10/28 04:27:07;;;;;;;19.77;5.97;;;17.40;99.90;;;;;;5058598;28;20064;-70
2022/10/28 04:29:33;;;;;;;18.30;6.18;;;17.40;99.90;;;;;;5060058;28;20017;-71
2022/10/28 04:31:59;;;;;;;15.13;5.50;;;17.40;99.90;;;;;;5065720;28;20025;-70
2022/10/28 04:34:25;;;;;;;19.38;5.65;;;17.40;99.90;;;;;;5059804;28;20520;-71
2022/10/28 04:36:50;;;;;;;14.88;6.32;;;17.30;99.90;;;;;;5062612;28;20032;-70
2022/10/28 04:39:16;;;;;;;15.98;6.13;;;17.30;99.90;;;;;;5058922;28;20024;-70
2022/10/28 04:41:42;;;;;;;17.52;6.00;;;17.20;99.90;;;;;;5064590;28;20068;-70
2022/10/28 04:44:07;;;;;;;14.90;6.18;;;17.30;99.90;;;;;;5064331;28;20059;-70
2022/10/28 04:46:33;;;;;;;20.25;6.68;;;17.20;99.90;;;;;;5065205;28;20069;-70
2022/10/28 04:48:58;;;;;;;19.15;6.25;;;17.30;99.90;;;;;;5055681;28;20029;-71
2022/10/28 04:51:24;;;;;;;13.48;5.25;;;17.30;99.90;;;;;;5061437;28;20029;-70
2022/10/28 04:53:50;;;;;;;14.85;4.70;;;17.30;99.90;;;;;;5062376;28;20067;-70
2022/10/28 04:56:15;;;;;;;24.05;5.75;;;17.30;99.90;;;;;;5058667;28;20028;-70
2022/10/28 04:58:41;;;;;;;17.55;5.18;;;17.20;99.90;;;;;;5059921;28;20040;-70
2022/10/28 05:01:08;;;;;;;21.65;6.07;;;17.10;99.90;;;;;;5067069;28;20138;-70
2022/10/28 05:03:34;;;;;;;19.85;7.20;;;17.20;99.90;;;;;;5063084;28;20158;-70
2022/10/28 05:06:00;;;;;;;21.45;5.68;;;17.20;99.90;;;;;;5057160;28;20072;-70
2022/10/28 05:08:25;;;;;;;12.48;4.72;;;17.20;99.90;;;;;;5062085;28;20052;-70
2022/10/28 05:10:51;;;;;;;19.35;5.97;;;17.20;99.90;;;;;;5064161;28;20385;-70
2022/10/28 05:13:17;;;;;;;13.00;5.57;;;17.10;99.90;;;;;;5057274;28;20033;-70
2022/10/28 05:15:43;;;;;;;16.58;6.05;;;17.10;99.90;;;;;;5061668;28;20029;-70
2022/10/28 05:18:09;;;;;;;19.90;5.82;;;17.10;99.90;;;;;;5062097;28;20051;-70
2022/10/28 05:20:34;;;;;;;15.48;5.82;;;17.10;99.90;;;;;;5066310;28;20032;-71
2022/10/28 05:23:00;;;;;;;22.70;6.90;;;17.10;99.90;;;;;;5063396;28;20116;-70
2022/10/28 05:25:25;;;;;;;18.42;5.88;;;17.10;99.90;;;;;;5064501;28;20389;-70
2022/10/28 05:27:51;;;;;;;20.13;4.90;;;17.10;99.90;;;;;;5067142;28;20086;-70
2022/10/28 05:30:17;;;;;;;29.45;5.90;;;17.10;99.90;;;;;;5066420;28;20020;-70
2022/10/28 05:32:44;;;;;;;18.75;5.97;;;17.10;99.90;;;;;;5066064;28;20040;-70
2022/10/28 05:35:10;;;;;;;14.48;5.68;;;17.00;99.90;;;;;;5065019;28;20083;-70
2022/10/28 05:37:36;;;;;;;13.73;5.38;;;17.10;99.90;;;;;;5065819;28;20118;-70
2022/10/28 05:40:03;;;;;;;20.15;5.75;;;17.00;99.90;;;;;;5062815;28;20021;-70
2022/10/28 05:42:28;;;;;;;21.92;6.35;;;17.00;99.90;;;;;;5068350;28;20051;-70
2022/10/28 05:44:54;;;;;;;17.25;6.15;;;17.10;99.90;;;;;;5057880;28;20520;-70
2022/10/28 05:47:19;;;;;;;15.98;5.72;;;17.10;99.90;;;;;;5064450;28;20052;-70
2022/10/28 05:49:45;;;;;;;15.27;5.65;;;17.10;99.90;;;;;;5065833;28;20078;-70
2022/10/28 05:52:10;;;;;;;14.82;5.72;;;17.00;99.90;;;;;;5066384;28;20086;-70
2022/10/28 05:54:36;;;;;;;16.67;6.60;;;17.00;99.90;;;;;;5067886;28;20032;-70
2022/10/28 05:57:02;;;;;;;17.23;6.43;;;16.90;99.90;;;;;;5064852;28;20077;-70
2022/10/28 05:59:27;;;;;;;19.58;5.97;;;16.90;99.90;;;;;;5064301;28;20029;-70
2022/10/28 06:01:53;;;;;;;21.92;6.57;;;17.00;99.90;;;;;;5061969;28;20041;-70
2022/10/28 06:04:18;;;;;;;21.25;6.68;;;16.90;99.90;;;;;;5061974;28;20101;-70
2022/10/28 06:06:44;;;;;;;19.75;5.60;;;16.90;99.90;;;;;;5066669;28;20032;-70
2022/10/28 06:09:09;;;;;;;16.65;5.82;;;16.80;99.90;;;;;;5067699;28;20021;-70
2022/10/28 06:11:35;;;;;;;23.92;6.68;;;16.80;99.90;;;;;;5067980;28;20036;-70
2022/10/28 06:14:01;;;;;;;19.98;6.38;;;16.80;99.90;;;;;;5059703;28;20531;-70
2022/10/28 06:16:27;;;;;;;26.05;6.13;;;16.70;99.90;;;;;;5068376;28;20119;-71
2022/10/28 06:18:52;;;;;;;14.43;5.80;;;16.70;99.90;;;;;;5067161;28;20043;-70
2022/10/28 06:21:18;;;;;;;21.55;7.50;;;16.70;99.90;;;;;;5057830;28;20057;-70
2022/10/28 06:23:46;;;;;;;22.40;6.75;;;16.70;99.90;;;;;;5063864;28;20029;-70
2022/10/28 06:26:11;;;;;;;19.13;6.32;;;16.60;99.90;;;;;;5062400;28;20029;-70
2022/10/28 06:28:37;;;;;;;18.65;6.95;;;16.70;99.90;;;;;;5062043;28;20059;-70
2022/10/28 06:31:08;;;;;;;21.63;7.20;;;16.60;99.90;;;;;;5067892;28;20068;-70
2022/10/28 06:33:34;;;;;;;19.90;7.20;;;16.60;99.90;;;;;;5066013;28;20024;-70
2022/10/28 06:36:00;;;;;;;15.63;5.30;;;16.60;99.90;;;;;;5065114;28;20438;-70
2022/10/28 06:38:27;;;;;;;20.63;6.10;;;16.70;99.90;;;;;;5064969;28;20021;-70
2022/10/28 06:40:53;;;;;;;17.35;5.68;;;16.60;99.90;;;;;;5066383;28;20024;-70
2022/10/28 06:43:19;;;;;;;16.55;6.07;;;16.60;99.90;;;;;;5060899;28;20032;-70
2022/10/28 06:45:45;;;;;;;20.55;6.95;;;16.50;99.90;;;;;;5070238;28;20116;-70
2022/10/28 06:48:12;;;;;;;15.60;6.35;;;16.50;99.90;;;;;;5061575;28;20469;-70
2022/10/28 06:50:37;;;;;;;17.77;6.30;;;16.50;99.90;;;;;;5064507;28;20020;-71
2022/10/28 06:53:03;;;;;;;17.75;6.15;;;16.50;99.90;;;;;;5069334;28;20048;-70
2022/10/28 06:55:29;;;;;;;18.27;6.72;;;16.50;99.90;;;;;;5059798;28;20021;-72
2022/10/28 06:57:59;;;;;;;19.33;6.38;;;16.50;99.90;;;;;;5065985;28;20488;-70
2022/10/28 07:00:25;;;;;;;15.55;5.75;;;16.50;99.90;;;;;;5061593;28;20481;-70
2022/10/28 07:02:52;;;;;;;11.80;6.53;;;16.50;99.90;;;;;;5065143;28;20081;-69
2022/10/28 07:05:18;;;;;;;13.90;6.63;;;16.50;99.90;;;;;;5065010;28;20021;-70
2022/10/28 07:07:43;;;;;;;21.48;6.10;;;16.50;99.90;;;;;;5063506;28;20113;-70
2022/10/28 07:10:09;;;;;;;19.55;6.20;;;16.50;99.90;;;;;;5056528;28;20024;-70
2022/10/28 07:12:34;;;;;;;23.17;6.22;;;16.60;99.90;;;;;;5061543;28;20499;-71
2022/10/28 07:15:00;;;;;;;12.63;6.20;;;16.50;99.90;;;;;;5062769;28;20025;-70
2022/10/28 07:17:26;;;;;;;24.40;6.60;;;16.60;99.90;;;;;;5061105;28;20036;-70
2022/10/28 07:19:51;;;;;;;19.80;6.38;;;16.70;99.90;;;;;;5060456;28;20052;-70
2022/10/28 07:22:17;;;;;;;20.38;6.90;;;16.70;99.90;;;;;;5059142;28;20504;-71
2022/10/28 07:24:43;;;;;;;17.70;6.65;;;16.70;99.90;;;;;;5059339;28;20097;-71
2022/10/28 07:27:08;;;;;;;15.85;6.22;;;16.80;99.90;;;;;;5059451;28;20501;-71
2022/10/28 07:29:34;;;;;;;22.25;6.65;;;16.90;99.90;;;;;;5064395;28;20020;-71
2022/10/28 07:32:00;;;;;;;14.35;6.30;;;17.00;99.90;;;;;;5060837;28;20033;-71
2022/10/28 07:34:25;;;;;;;14.77;6.18;;;17.00;99.90;;;;;;5061289;28;20539;-71
2022/10/28 07:36:52;;;;;;;16.15;6.50;;;17.10;99.90;;;;;;5064152;28;20035;-71
2022/10/28 07:39:18;;;;;;;18.55;6.53;;;17.20;99.90;;;;;;5060271;28;20033;-72
2022/10/28 07:41:44;;;;;;;15.57;5.70;;;17.20;99.90;;;;;;5060223;28;20042;-71
2022/10/28 07:44:09;;;;;;;22.50;8.00;;;17.20;99.90;;;;;;5059926;28;20028;-71
2022/10/28 07:46:35;;;;;;;15.15;6.30;;;17.20;99.90;;;;;;5064061;28;20021;-70
2022/10/28 07:49:01;;;;;;;13.80;6.53;;;17.30;99.90;;;;;;5064348;28;20460;-71
2022/10/28 07:51:26;;;;;;;22.20;6.72;;;17.30;99.90;;;;;;5057286;28;20477;-71
2022/10/28 07:53:52;;;;;;;26.98;6.55;;;17.30;99.90;;;;;;5056393;28;20126;-71
2022/10/28 07:56:17;;;;;;;19.20;6.80;;;17.40;99.90;;;;;;5059358;28;20059;-71
2022/10/28 07:58:44;;;;;;;19.75;7.20;;;17.60;99.90;;;;;;5057869;28;20405;-73
2022/10/28 08:01:11;;;;;;;18.08;6.95;;;17.70;99.90;;;;;;5064925;28;20048;-71
2022/10/28 08:03:38;;;;;;;16.20;6.50;;;17.80;99.90;;;;;;5058243;28;20016;-70
2022/10/28 08:06:10;;;;;;;15.52;6.57;;;17.90;99.90;;;;;;5056491;28;20032;-71
2022/10/28 08:08:36;;;;;;;18.38;6.50;;;18.00;99.90;;;;;;5054509;28;20021;-71
2022/10/28 08:11:13;;;;;;;18.52;6.57;;;18.20;99.90;;;;;;5061766;28;20021;-71
2022/10/28 08:13:38;;;;;;;18.30;6.30;;;18.40;99.90;;;;;;5061177;28;20150;-71
2022/10/28 08:16:04;;;;;;;17.05;5.72;;;18.40;99.90;;;;;;5062112;28;20410;-71
2022/10/28 08:18:30;;;;;;;18.23;7.35;;;18.50;99.90;;;;;;5063152;28;20029;-71
2022/10/28 08:20:58;;;;;;;18.73;6.88;;;18.70;99.90;;;;;;5060908;28;20384;-71
2022/10/28 08:23:24;;;;;;;28.27;6.68;;;18.80;99.90;;;;;;5066999;28;20025;-71
2022/10/28 08:25:51;;;;;;;15.52;6.18;;;18.80;99.90;;;;;;5060948;28;20127;-71
2022/10/28 08:28:17;;;;;;;22.05;5.75;;;18.90;99.90;;;;;;5028940;28;20143;-71
2022/10/28 08:30:44;;;;;;;14.90;6.10;;;19.00;99.90;;;;;;5048796;28;20043;-71
2022/10/28 08:33:09;;;;;;;20.50;5.80;;;19.20;99.90;;;;;;5052314;28;20036;-71
2022/10/28 08:35:35;;;;;;;17.08;5.80;;;19.20;99.90;;;;;;5054137;28;20024;-71
2022/10/28 08:38:02;;;;;;;13.80;5.53;;;19.20;99.90;;;;;;5052332;28;20507;-71
2022/10/28 08:40:39;;;;;;;19.15;5.88;;;19.30;99.90;;;;;;5053552;28;20025;-71
2022/10/28 08:43:23;;;;;;;16.27;5.80;;;19.50;99.90;;;;;;5056415;28;20647;-71
2022/10/28 08:46:00;;;;;;;12.68;5.65;;;19.50;99.90;;;;;;5052660;28;20024;-72
2022/10/28 08:48:28;;;;;;;15.85;5.72;;;19.60;99.90;;;;;;5054316;28;20028;-72
2022/10/28 08:51:05;;;;;;;17.52;5.70;;;19.60;99.90;;;;;;5053767;28;20104;-72
2022/10/28 08:53:46;;;;;;;26.30;6.65;;;19.70;99.90;;;;;;5056207;28;20031;-71
2022/10/28 08:56:24;;;;;;;17.08;6.10;;;19.70;99.90;;;;;;5057681;28;20421;-71
2022/10/28 08:58:53;;;;;;;20.10;6.05;;;19.80;99.90;;;;;;5050551;28;20052;-72
2022/10/28 09:01:37;;;;;;;19.92;5.53;;;19.80;99.90;;;;;;5055056;28;20029;-72
2022/10/28 09:04:11;;;;;;;18.05;5.85;;;19.90;99.90;;;;;;5052979;28;20028;-72
2022/10/28 09:06:37;;;;;;;17.33;5.32;;;20.00;99.90;;;;;;5053515;28;20068;-73
2022/10/28 09:09:03;;;;;;;23.80;6.43;;;20.10;99.90;;;;;;5054343;28;20052;-72
2022/10/28 09:11:49;;;;;;;18.92;5.95;;;20.10;99.90;;;;;;5056446;28;20030;-73
2022/10/28 09:14:35;;;;;;;21.63;6.15;;;20.10;99.90;;;;;;5055369;28;20038;-73
2022/10/28 09:17:17;;;;;;;13.45;5.10;;;20.10;99.90;;;;;;5046414;28;20044;-73
2022/10/28 09:19:53;;;;;;;15.20;5.22;;;20.20;99.90;;;;;;5049657;28;20032;-72
2022/10/28 09:22:35;;;;;;;21.42;5.78;;;20.30;99.90;;;;;;5054065;28;20041;-72
2022/10/28 09:25:22;;;;;;;15.07;5.03;;;20.40;99.90;;;;;;5049843;28;20025;-72
2022/10/28 09:28:22;;;;;;;21.58;5.38;;;20.40;99.90;;;;;;5051819;28;20108;-73
2022/10/28 09:31:14;;;;;;;19.52;5.70;;;20.60;99.90;;;;;;5066479;28;20123;-72
2022/10/28 09:34:09;;;;;;;10.80;4.90;;;20.70;99.90;;;;;;5051378;28;20052;-73
2022/10/28 09:36:43;;;;;;;22.40;5.53;;;20.70;99.90;;;;;;5054427;28;20028;-72
2022/10/28 09:39:16;;;;;;;19.38;5.97;;;20.90;99.90;;;;;;5050961;28;20032;-72
2022/10/28 09:41:44;;;;;;;15.02;4.85;;;20.90;99.90;;;;;;5064574;28;20115;-73
2022/10/28 09:44:21;;;;;;;18.17;5.50;;;20.90;99.90;;;;;;5051089;28;20496;-73
2022/10/28 09:46:49;;;;;;;14.90;5.38;;;21.00;99.90;;;;;;5050786;28;20068;-73
2022/10/28 09:49:30;;;;;;;15.10;5.00;;;20.90;99.90;;;;;;5050793;28;20021;-72
2022/10/28 09:52:07;;;;;;;17.60;4.25;;;21.00;99.90;;;;;;5050611;28;20025;-73
2022/10/28 09:54:55;;;;;;;14.23;4.57;;;21.10;99.90;;;;;;5049530;28;20494;-72
2022/10/28 09:57:29;;;;;;;14.55;5.05;;;21.20;99.90;;;;;;5051160;28;20037;-72
2022/10/28 09:59:55;;;;;;;12.80;4.72;;;21.10;99.90;;;;;;5048697;28;20024;-73
2022/10/28 10:02:27;;;;;;;15.90;5.25;;;21.20;99.90;;;;;;5048465;28;20474;-73
2022/10/28 10:04:58;;;;;;;15.13;4.70;;;21.20;99.90;;;;;;5053327;28;20052;-72
2022/10/28 10:07:40;;;;;;;15.00;4.38;;;21.30;99.90;;;;;;5052610;28;20063;-72
2022/10/28 10:10:29;;;;;;;19.20;4.55;;;21.30;99.90;;;;;;5057010;28;20051;-73
2022/10/28 10:13:01;;;;;;;18.00;4.90;;;21.40;99.90;;;;;;5056082;28;20028;-72
2022/10/28 10:15:31;;;;;;;;;;;21.60;99.90;;;;;;5054471;28;20024;-73
2022/10/28 10:18:01;;;;;;;12.80;4.70;;;21.60;99.90;;;;;;5051614;28;19932;-74
2022/10/28 10:20:27;;;;;;;16.63;5.68;;;21.70;99.90;;;;;;5054024;28;20107;-73
2022/10/28 10:22:52;;;;;;;16.48;4.68;;;21.70;99.90;;;;;;5055132;28;20079;-72
2022/10/28 10:25:18;;;;;;;17.08;6.00;;;21.70;99.90;;;;;;5056905;28;20485;-72
2022/10/28 10:28:13;;;;;;;13.45;5.25;;;21.70;99.90;;;;;;5053719;28;20033;-73
2022/10/28 10:30:47;;;;;;;13.98;4.70;;;21.70;99.90;;;;;;5052802;28;20032;-72
2022/10/28 10:33:34;;;;;;;21.17;4.93;;;21.80;99.90;;;;;;5070796;28;20017;-72
2022/10/28 10:36:09;;;;;;;22.92;5.65;;;21.80;99.90;;;;;;5056783;28;20265;-74
2022/10/28 10:38:36;;;;;;;16.02;5.18;;;21.90;99.90;;;;;;5054710;28;20032;-73
2022/10/28 10:41:02;;;;;;;16.17;4.85;;;22.00;99.90;;;;;;5052266;28;20120;-73
2022/10/28 10:43:35;;;;;;;15.32;4.95;;;22.10;99.90;;;;;;5053655;28;20021;-72
2022/10/28 10:46:04;;;;;;;20.58;4.40;;;22.20;99.90;;;;;;5055408;28;20036;-73
2022/10/28 10:48:33;;;;;;;18.30;4.32;;;22.30;99.90;;;;;;5058448;28;20476;-73
2022/10/28 10:51:20;;;;;;;16.45;4.68;;;22.40;99.90;;;;;;5055265;28;20111;-73
2022/10/28 10:53:54;;;;;;;14.77;4.35;;;22.40;99.90;;;;;;5054648;28;20021;-73
2022/10/28 10:56:26;;;;;;;20.50;5.13;;;22.40;99.90;;;;;;5054591;28;20035;-73
2022/10/28 10:58:55;;;;;;;19.92;5.43;;;22.40;99.90;;;;;;5056011;28;20029;-73
2022/10/28 11:01:26;;;;;;;9.98;4.35;;;22.50;99.90;;;;;;5052907;28;20029;-75
2022/10/28 11:03:58;;;;;;;17.33;4.97;;;22.60;99.90;;;;;;5052813;28;20021;-73
2022/10/28 11:06:35;;;;;;;15.18;4.00;;;22.60;99.90;;;;;;5056307;28;20396;-73
2022/10/28 11:09:19;;;;;;;17.02;5.32;;;22.60;99.90;;;;;;5059498;28;20016;-73
2022/10/28 11:11:45;;;;;;;17.88;4.90;;;22.70;99.90;;;;;;5054102;28;20040;-73
2022/10/28 11:14:14;;;;;;;14.35;4.22;;;22.60;99.90;;;;;;5055430;28;20490;-73
2022/10/28 11:16:56;;;;;;;17.83;4.45;;;22.60;99.90;;;;;;5052176;28;20032;-73
2022/10/28 11:19:33;;;;;;;18.05;4.68;;;22.70;99.90;;;;;;5056844;28;20044;-72
2022/10/28 11:22:14;;;;;;;14.60;5.03;;;22.70;99.90;;;;;;5054408;28;20033;-73
2022/10/28 11:25:04;;;;;;;17.33;4.22;;;22.70;99.90;;;;;;5056159;28;20028;-75
2022/10/28 11:27:48;;;;;;;17.48;4.20;;;22.70;99.90;;;;;;5051996;28;20021;-72
2022/10/28 11:30:17;;;;;;;13.98;4.80;;;22.90;99.90;;;;;;5052064;28;20025;-73
2022/10/28 11:33:07;;;;;;;21.88;4.82;;;22.80;99.90;;;;;;5055497;28;20032;-73
2022/10/28 11:36:01;;;;;;;19.50;4.63;;;22.70;99.90;;;;;;5055087;28;20020;-73
2022/10/28 11:38:32;;;;;;;11.57;4.30;;;22.70;99.90;;;;;;5046821;28;20032;-73
2022/10/28 11:41:39;;;;;;;17.38;4.88;;;22.80;99.90;;;;;;5052869;28;20501;-74
2022/10/28 11:44:31;;;;;;;18.95;4.50;;;22.70;99.90;;;;;;5055445;28;20039;-73
2022/10/28 11:47:00;;;;;;;18.88;4.57;;;22.80;99.90;;;;;;5057699;28;20032;-75
2022/10/28 11:49:47;;;;;;;15.43;4.15;;;22.90;99.90;;;;;;5051411;28;20029;-73
2022/10/28 11:53:09;;;;;;;13.57;4.32;;;22.90;99.90;;;;;;5053415;28;20009;-73
2022/10/28 11:55:41;;;;;;;18.15;4.57;;;22.90;99.90;;;;;;5036112;28;20496;-73
2022/10/28 11:58:26;;;;;;;19.60;4.95;;;23.00;99.90;;;;;;5040936;28;20021;-72
2022/10/28 12:01:07;;;;;;;11.20;4.07;;;23.00;99.90;;;;;;5050130;28;20047;-72
2022/10/28 12:03:49;;;;;;;14.85;4.18;;;22.90;99.90;;;;;;5051756;28;20025;-73
2022/10/28 12:06:56;;;;;;;19.00;3.95;;;23.00;99.90;;;;;;5054424;28;20036;-74
2022/10/28 12:09:27;;;;;;;18.95;4.60;;;23.00;99.90;;;;;;5061839;28;20040;-73
2022/10/28 12:12:29;;;;;;;16.92;4.90;;;23.00;99.90;;;;;;5055516;28;20062;-72
2022/10/28 12:15:15;;;;;;;18.15;4.60;;;23.00;99.90;;;;;;5045635;28;20106;-74
2022/10/28 12:17:48;;;;;;;11.93;4.38;;;23.00;99.90;;;;;;5053814;28;20115;-72
2022/10/28 12:20:23;;;;;;;19.23;4.18;;;23.00;99.90;;;;;;5054239;28;20054;-76
2022/10/28 12:22:54;;;;;;;15.60;4.35;;;23.00;99.90;;;;;;5050270;28;20044;-77
2022/10/28 12:25:33;;;;;;;13.77;4.30;;;23.10;99.90;;;;;;5054382;28;20453;-74
2022/10/28 12:28:18;;;;;;;14.68;4.78;;;23.00;99.90;;;;;;5051987;28;20024;-72
2022/10/28 12:30:46;;;;;;;16.92;4.63;;;23.10;99.90;;;;;;5050551;28;20438;-74
2022/10/28 12:33:17;;;;;;;19.38;4.25;;;23.10;99.90;;;;;;5051163;28;20064;-75
2022/10/28 12:36:12;;;;;;;15.57;3.80;;;23.10;99.90;;;;;;5051337;28;20021;-72
2022/10/28 12:38:56;;;;;;;25.13;4.18;;;23.10;99.90;;;;;;5053363;28;20424;-74
2022/10/28 12:41:25;;;;;;;14.48;4.00;;;23.10;99.90;;;;;;5053856;28;20086;-75
2022/10/28 12:44:00;;;;;;;14.27;4.30;;;23.10;99.90;;;;;;5068527;28;20029;-75
2022/10/28 12:47:03;;;;;;;20.23;4.10;;;23.20;99.90;;;;;;5053074;28;20029;-74
2022/10/28 12:49:45;;;;;;;15.35;4.47;;;23.10;99.90;;;;;;5050176;28;20163;-75
2022/10/28 12:52:29;;;;;;;22.85;5.10;;;23.00;99.90;;;;;;5054473;28;20052;-74
2022/10/28 12:55:06;;;;;;;20.50;4.40;;;23.00;99.90;;;;;;5054820;28;20485;-74
2022/10/28 12:57:34;;;;;;;16.17;4.15;;;23.00;99.90;;;;;;5067464;28;20095;-75
2022/10/28 13:00:18;;;;;;;12.20;4.00;;;23.00;99.90;;;;;;5049999;28;20078;-75
2022/10/28 13:03:00;;;;;;;14.13;4.50;;;23.00;99.90;;;;;;5051383;28;20448;-74